Terminal Aerodrome Forecast
Issued by NWS Knoxville/Tri Cities, TN

Current Version | Previous Version | Text Only | Print | Product List | Glossary On
Versions: 1 2 3 4 5 6 7 8 9 10 11 12 13 14 15 16 17 18 19 20 21 22 23 24 25 26 27 28 29 30 31 32 33 34 35 36 37 38 39 40 41
000
FTUS44 KMRX 301123
TAFTYS
TAF
KTYS 301123Z 3012/3112 33010G18KT P6SM OVC030
     FM301500 32012G20KT P6SM SCT035 BKN080
     FM301800 34010KT P6SM SCT050 BKN150
     FM310000 02004KT P6SM SCT250=

USA.gov is the U.S. government's official web portal to all federal, state and local government web resources and services.